createdAt,value
2018-10-07T00:01:06.969Z,100.00
2018-10-07T00:03:35.744Z,100.00
2018-10-07T00:06:04.589Z,100.00
2018-10-07T00:08:34.038Z,100.00
2018-10-07T00:11:02.818Z,100.00
2018-10-07T00:13:31.917Z,100.00
2018-10-07T00:16:00.840Z,100.00
2018-10-07T00:18:29.675Z,100.00
2018-10-07T00:20:58.742Z,100.00
2018-10-07T00:23:27.590Z,100.00
2018-10-07T00:25:56.389Z,100.00
2018-10-07T00:28:25.218Z,100.00
2018-10-07T00:30:53.994Z,100.00
2018-10-07T00:33:23.190Z,100.00
2018-10-07T00:35:52.573Z,100.00
2018-10-07T00:38:21.405Z,100.00
2018-10-07T00:40:50.429Z,100.00
2018-10-07T00:43:19.288Z,100.00
2018-10-07T00:45:48.066Z,100.00
2018-10-07T00:48:16.898Z,100.00
2018-10-07T00:50:46.518Z,100.00
2018-10-07T00:53:15.608Z,100.00
2018-10-07T00:55:44.319Z,100.00
2018-10-07T00:58:13.633Z,100.00
2018-10-07T01:00:42.647Z,100.00
2018-10-07T01:03:12.205Z,100.00
2018-10-07T01:05:41.304Z,100.00
2018-10-07T01:08:10.187Z,100.00
2018-10-07T01:10:38.978Z,100.00
2018-10-07T01:13:07.788Z,100.00
2018-10-07T01:15:36.963Z,100.00
2018-10-07T01:18:05.695Z,100.00
2018-10-07T01:20:34.745Z,100.00
2018-10-07T01:23:03.492Z,100.00
2018-10-07T01:25:32.355Z,100.00
2018-10-07T01:28:01.464Z,100.00
2018-10-07T01:30:30.305Z,100.00
2018-10-07T01:32:59.565Z,100.00
2018-10-07T01:35:28.414Z,100.00
2018-10-07T01:37:57.911Z,100.00
2018-10-07T01:40:27.656Z,100.00
2018-10-07T01:42:57.086Z,100.00
2018-10-07T01:45:25.836Z,100.00
2018-10-07T01:47:55.114Z,100.00
2018-10-07T01:50:25.329Z,100.00
2018-10-07T01:52:54.398Z,100.00
2018-10-07T01:55:23.854Z,100.00
2018-10-07T01:57:52.664Z,100.00
2018-10-07T02:00:21.706Z,100.00
2018-10-07T02:02:50.714Z,100.00
2018-10-07T02:05:20.091Z,100.00
2018-10-07T02:07:48.896Z,100.00
2018-10-07T02:10:18.042Z,100.00
2018-10-07T02:12:47.182Z,100.00
2018-10-07T02:15:16.368Z,100.00
2018-10-07T02:17:46.130Z,100.00
2018-10-07T02:20:14.879Z,100.00
2018-10-07T02:22:44.201Z,100.00
2018-10-07T02:25:13.293Z,100.00
2018-10-07T02:27:42.054Z,100.00
2018-10-07T02:30:11.336Z,100.00
2018-10-07T02:32:40.096Z,100.00
2018-10-07T02:35:08.878Z,100.00
2018-10-07T02:37:37.680Z,100.00
2018-10-07T02:40:06.436Z,100.00
2018-10-07T02:42:35.726Z,100.00
2018-10-07T02:45:11.302Z,100.00
2018-10-07T02:47:40.355Z,100.00
2018-10-07T02:50:20.011Z,100.00
2018-10-07T02:52:50.895Z,100.00
2018-10-07T02:55:22.521Z,100.00
2018-10-07T02:57:52.871Z,100.00
2018-10-07T03:00:21.645Z,100.00
2018-10-07T03:02:51.222Z,100.00
2018-10-07T03:05:20.324Z,100.00
2018-10-07T03:07:49.474Z,100.00
2018-10-07T03:10:19.529Z,100.00
2018-10-07T03:12:48.704Z,100.00
2018-10-07T03:15:17.572Z,100.00
2018-10-07T03:17:46.706Z,100.00
2018-10-07T03:20:15.489Z,100.00
2018-10-07T03:22:44.758Z,100.00
2018-10-07T03:25:13.783Z,100.00
2018-10-07T03:27:43.106Z,100.00
2018-10-07T03:30:12.434Z,100.00
2018-10-07T03:32:41.220Z,100.00
2018-10-07T03:35:10.291Z,100.00
2018-10-07T03:37:39.337Z,100.00
2018-10-07T03:40:08.464Z,100.00
2018-10-07T03:42:37.280Z,100.00
2018-10-07T03:45:06.136Z,100.00
2018-10-07T03:47:34.875Z,100.00
2018-10-07T03:50:04.067Z,100.00
2018-10-07T03:52:32.904Z,100.00
2018-10-07T03:55:02.058Z,99.98
2018-10-07T03:57:31.188Z,100.00
2018-10-07T04:00:00.590Z,100.00
2018-10-07T04:02:29.406Z,100.00
2018-10-07T04:04:58.179Z,100.00
2018-10-07T04:07:26.895Z,100.00
2018-10-07T04:09:55.733Z,100.00
2018-10-07T04:12:24.531Z,100.00
2018-10-07T04:14:53.340Z,100.00
2018-10-07T04:17:22.574Z,100.00
2018-10-07T04:19:51.380Z,100.00
2018-10-07T04:22:20.170Z,100.00
2018-10-07T04:24:49.044Z,100.00
2018-10-07T04:27:17.836Z,100.00
2018-10-07T04:29:46.847Z,100.00
2018-10-07T04:32:15.951Z,100.00
2018-10-07T04:34:45.433Z,100.00
2018-10-07T04:37:14.246Z,100.00
2018-10-07T04:39:43.071Z,100.00
2018-10-07T04:42:11.936Z,100.00
2018-10-07T04:44:40.955Z,100.00
2018-10-07T04:47:10.232Z,100.00
2018-10-07T04:49:39.600Z,100.00
2018-10-07T04:52:08.964Z,100.00
2018-10-07T04:54:37.852Z,100.00
2018-10-07T04:57:06.741Z,100.00
2018-10-07T04:59:35.999Z,100.00
2018-10-07T05:02:05.176Z,100.00
2018-10-07T05:04:34.100Z,100.00
2018-10-07T05:07:03.254Z,100.00
2018-10-07T05:09:32.059Z,100.00
2018-10-07T05:12:03.408Z,100.00
2018-10-07T05:14:32.193Z,100.00
2018-10-07T05:17:01.379Z,100.00
2018-10-07T05:19:30.150Z,100.00
2018-10-07T05:21:58.894Z,100.00
2018-10-07T05:24:27.714Z,100.00
2018-10-07T05:26:56.899Z,100.00
2018-10-07T05:29:26.119Z,100.00
2018-10-07T05:31:54.860Z,100.00
2018-10-07T05:34:23.679Z,100.00
2018-10-07T05:36:52.513Z,100.00
2018-10-07T05:39:21.446Z,100.00
2018-10-07T05:41:50.192Z,100.00
2018-10-07T05:44:19.319Z,100.00
2018-10-07T05:46:48.367Z,100.00
2018-10-07T05:49:17.201Z,100.00
2018-10-07T05:51:46.263Z,100.00
2018-10-07T05:54:15.412Z,100.00
2018-10-07T05:56:44.588Z,100.00
2018-10-07T05:59:14.011Z,100.00
2018-10-07T06:01:45.912Z,100.00
2018-10-07T06:04:56.402Z,100.00
2018-10-07T06:07:26.682Z,100.00
2018-10-07T06:09:55.476Z,100.00
2018-10-07T06:12:24.285Z,100.00
2018-10-07T06:15:04.288Z,100.00
2018-10-07T06:17:33.105Z,100.00
2018-10-07T06:20:01.874Z,100.00
2018-10-07T06:22:30.640Z,100.00
2018-10-07T06:24:59.770Z,100.00
2018-10-07T06:27:28.668Z,100.00
2018-10-07T06:29:57.994Z,100.00
2018-10-07T06:32:26.740Z,100.00
2018-10-07T06:34:55.819Z,100.00
2018-10-07T06:37:25.546Z,100.00
2018-10-07T06:39:54.787Z,100.00
2018-10-07T06:42:23.627Z,100.00
2018-10-07T06:44:52.559Z,100.00
2018-10-07T06:47:21.835Z,100.00
2018-10-07T06:49:50.627Z,100.00
2018-10-07T06:52:19.491Z,100.00
2018-10-07T06:54:48.298Z,100.00
2018-10-07T06:57:17.108Z,100.00
2018-10-07T06:59:46.730Z,100.00
2018-10-07T07:02:15.483Z,100.00
2018-10-07T07:04:44.844Z,100.00
2018-10-07T07:07:13.957Z,100.00
2018-10-07T07:09:42.904Z,100.00
2018-10-07T07:12:11.939Z,100.00
2018-10-07T07:14:41.591Z,100.00
2018-10-07T07:17:10.504Z,100.00
2018-10-07T07:19:39.774Z,100.00
2018-10-07T07:22:08.594Z,100.00
2018-10-07T07:24:38.275Z,100.00
2018-10-07T07:27:07.489Z,100.00
2018-10-07T07:29:36.732Z,100.00
2018-10-07T07:32:05.588Z,100.00
2018-10-07T07:34:34.919Z,100.00
2018-10-07T07:37:03.711Z,100.00
2018-10-07T07:39:32.467Z,100.00
2018-10-07T07:42:01.635Z,100.00
2018-10-07T07:44:30.483Z,100.00
2018-10-07T07:46:59.384Z,100.00
2018-10-07T07:49:29.381Z,100.00
2018-10-07T07:51:58.426Z,100.00
2018-10-07T07:54:27.683Z,100.00
2018-10-07T07:56:56.754Z,100.00
2018-10-07T07:59:25.806Z,100.00
2018-10-07T08:01:54.882Z,100.00
2018-10-07T08:04:24.295Z,100.00
2018-10-07T08:06:53.166Z,100.00
2018-10-07T08:09:28.262Z,100.00
2018-10-07T08:11:57.341Z,100.00
2018-10-07T08:14:26.130Z,100.00
2018-10-07T08:16:55.042Z,100.00
2018-10-07T08:19:24.646Z,100.00
2018-10-07T08:21:53.739Z,99.03
2018-10-07T08:24:22.541Z,99.77
2018-10-07T08:26:55.063Z,99.98
2018-10-07T08:29:23.900Z,97.60
2018-10-07T08:31:52.729Z,97.07
2018-10-07T08:34:21.599Z,96.86
2018-10-07T08:36:51.517Z,93.47
2018-10-07T08:39:21.505Z,94.38
2018-10-07T08:41:50.643Z,92.83
2018-10-07T08:44:19.468Z,92.41
2018-10-07T08:46:48.244Z,91.58
2018-10-07T08:49:17.445Z,92.55
2018-10-07T08:51:46.478Z,92.51
2018-10-07T08:54:15.276Z,92.31
2018-10-07T08:56:44.466Z,89.40
2018-10-07T08:59:13.238Z,90.12
2018-10-07T09:01:42.359Z,88.49
2018-10-07T09:04:11.157Z,88.35
2018-10-07T09:06:40.209Z,89.07
2018-10-07T09:09:10.189Z,88.35
2018-10-07T09:11:39.389Z,86.78
2018-10-07T09:14:08.244Z,86.59
2018-10-07T09:16:38.857Z,83.45
2018-10-07T09:19:07.631Z,85.03
2018-10-07T09:21:37.713Z,84.02
2018-10-07T09:24:07.312Z,83.93
2018-10-07T09:26:36.574Z,82.73
2018-10-07T09:29:05.658Z,83.01
2018-10-07T09:31:34.763Z,82.57
2018-10-07T09:34:03.545Z,82.95
2018-10-07T09:36:32.296Z,83.07
2018-10-07T09:39:01.700Z,80.58
2018-10-07T09:41:30.564Z,81.01
2018-10-07T09:43:59.530Z,79.10
2018-10-07T09:46:29.012Z,80.60
2018-10-07T09:48:57.847Z,79.89
2018-10-07T09:51:26.946Z,79.59
2018-10-07T09:53:59.752Z,76.42
2018-10-07T09:56:28.811Z,77.17
2018-10-07T09:58:57.875Z,77.01
2018-10-07T10:01:26.935Z,76.51
2018-10-07T10:03:56.325Z,72.62
2018-10-07T10:06:25.804Z,73.28
2018-10-07T10:08:54.586Z,72.77
2018-10-07T10:11:23.480Z,69.40
2018-10-07T10:13:52.518Z,69.44
2018-10-07T10:16:31.229Z,71.05
2018-10-07T10:19:00.170Z,73.38
2018-10-07T10:21:35.906Z,71.99
2018-10-07T10:24:14.841Z,68.69
2018-10-07T10:27:03.874Z,69.36
2018-10-07T10:29:36.758Z,69.15
2018-10-07T10:32:14.913Z,67.45
2018-10-07T10:34:54.384Z,68.66
2018-10-07T10:37:29.379Z,68.69
2018-10-07T10:40:00.606Z,67.83
2018-10-07T10:42:52.698Z,67.48
2018-10-07T10:45:36.499Z,67.72
2018-10-07T10:49:23.066Z,67.87
2018-10-07T10:52:00.683Z,64.68
2018-10-07T10:54:46.897Z,64.79
2018-10-07T10:57:20.918Z,64.78
2018-10-07T11:00:12.954Z,63.65
2018-10-07T11:05:04.645Z,62.42
2018-10-07T11:08:12.985Z,59.95
2018-10-07T11:11:47.132Z,57.42
2018-10-07T11:15:31.609Z,54.96
2018-10-07T11:18:10.244Z,54.10
2018-10-07T11:23:17.674Z,54.94
2018-10-07T11:25:56.781Z,54.62
2018-10-07T11:30:39.964Z,52.96
2018-10-07T11:33:18.462Z,50.57
2018-10-07T11:38:00.007Z,51.28
2018-10-07T11:41:36.228Z,52.04
2018-10-07T11:44:11.734Z,51.44
2018-10-07T11:46:59.859Z,48.39
2018-10-07T11:50:36.330Z,47.78
2018-10-07T11:53:16.304Z,49.37
2018-10-07T11:55:45.694Z,48.64
2018-10-07T11:58:14.483Z,48.66
2018-10-07T12:00:43.249Z,49.94
2018-10-07T12:03:11.994Z,48.59
2018-10-07T12:05:40.910Z,47.67
2018-10-07T12:08:09.726Z,48.44
2018-10-07T12:10:38.998Z,48.41
2018-10-07T12:13:08.579Z,49.26
2018-10-07T12:15:37.657Z,50.98
2018-10-07T12:18:06.502Z,49.55
2018-10-07T12:20:35.904Z,50.70
2018-10-07T12:23:04.715Z,50.48
2018-10-07T12:25:33.915Z,49.18
2018-10-07T12:28:03.124Z,49.57
2018-10-07T12:30:31.931Z,48.07
2018-10-07T12:33:00.697Z,49.59
2018-10-07T12:35:30.028Z,49.42
2018-10-07T12:37:59.305Z,49.63
2018-10-07T12:40:28.123Z,48.88
2018-10-07T12:42:56.888Z,49.85
2018-10-07T12:45:25.647Z,49.26
2018-10-07T12:47:54.868Z,48.38
2018-10-07T12:50:23.935Z,47.44
2018-10-07T12:52:55.307Z,46.84
2018-10-07T12:55:24.192Z,47.76
2018-10-07T12:57:53.701Z,45.63
2018-10-07T13:00:22.462Z,45.71
2018-10-07T13:02:51.293Z,46.12
2018-10-07T13:05:20.324Z,47.56
2018-10-07T13:07:49.287Z,47.46
2018-10-07T13:10:18.625Z,49.29
2018-10-07T13:12:47.419Z,49.99
2018-10-07T13:15:16.298Z,50.25
2018-10-07T13:17:45.555Z,52.14
2018-10-07T13:20:14.399Z,53.46
2018-10-07T13:22:43.483Z,54.12
2018-10-07T13:25:12.241Z,53.36
2018-10-07T13:27:41.326Z,54.10
2018-10-07T13:30:10.367Z,52.13
2018-10-07T13:32:39.576Z,53.11
2018-10-07T13:35:08.338Z,53.91
2018-10-07T13:37:37.173Z,53.90
2018-10-07T13:40:06.056Z,52.65
2018-10-07T13:42:35.187Z,52.95
2018-10-07T13:45:03.954Z,52.32
2018-10-07T13:47:32.751Z,52.91
2018-10-07T13:50:02.589Z,53.05
2018-10-07T13:52:31.579Z,53.13
2018-10-07T13:55:00.349Z,51.77
2018-10-07T13:57:29.412Z,51.39
2018-10-07T13:59:58.266Z,51.55
2018-10-07T14:02:27.266Z,51.68
2018-10-07T14:04:56.148Z,51.82
2018-10-07T14:07:24.962Z,50.58
2018-10-07T14:09:54.002Z,50.48
2018-10-07T14:12:22.766Z,49.73
2018-10-07T14:14:51.609Z,48.10
2018-10-07T14:17:20.652Z,48.46
2018-10-07T14:19:49.394Z,48.72
2018-10-07T14:22:18.462Z,48.55
2018-10-07T14:24:47.951Z,48.64
2018-10-07T14:27:17.203Z,48.12
2018-10-07T14:29:46.252Z,48.79
2018-10-07T14:32:15.052Z,48.60
2018-10-07T14:34:43.903Z,49.57
2018-10-07T14:37:13.351Z,48.97
2018-10-07T14:39:42.159Z,48.88
2018-10-07T14:42:11.111Z,48.27
2018-10-07T14:44:39.904Z,49.92
2018-10-07T14:47:08.709Z,48.97
2018-10-07T14:49:37.885Z,50.09
2018-10-07T14:52:06.779Z,51.31
2018-10-07T14:54:35.595Z,51.78
2018-10-07T14:57:04.510Z,52.70
2018-10-07T14:59:33.891Z,53.06
2018-10-07T15:02:02.754Z,54.18
2018-10-07T15:04:31.776Z,55.08
2018-10-07T15:07:00.730Z,54.86
2018-10-07T15:09:29.619Z,55.82
2018-10-07T15:11:58.361Z,55.29
2018-10-07T15:14:27.116Z,55.46
2018-10-07T15:16:55.934Z,55.52
2018-10-07T15:19:24.771Z,56.84
2018-10-07T15:21:53.562Z,56.90
2018-10-07T15:24:22.808Z,57.91
2018-10-07T15:26:52.140Z,58.25
2018-10-07T15:29:21.338Z,58.66
2018-10-07T15:31:50.700Z,58.47
2018-10-07T15:34:19.787Z,58.22
2018-10-07T15:36:48.661Z,59.12
2018-10-07T15:39:17.967Z,58.48
2018-10-07T15:41:47.824Z,58.23
2018-10-07T15:44:16.686Z,59.18
2018-10-07T15:46:45.463Z,59.11
2018-10-07T15:49:14.464Z,59.20
2018-10-07T15:51:43.667Z,59.90
2018-10-07T15:54:12.636Z,59.91
2018-10-07T15:56:41.861Z,60.00
2018-10-07T15:59:10.826Z,59.54
2018-10-07T16:01:39.590Z,59.89
2018-10-07T16:04:08.476Z,60.89
2018-10-07T16:06:37.262Z,60.98
2018-10-07T16:09:08.190Z,60.47
2018-10-07T16:11:37.269Z,61.07
2018-10-07T16:14:06.568Z,61.21
2018-10-07T16:16:41.626Z,60.94
2018-10-07T16:19:10.533Z,61.82
2018-10-07T16:21:39.243Z,62.61
2018-10-07T16:24:08.184Z,62.14
2018-10-07T16:26:37.047Z,62.54
2018-10-07T16:29:06.017Z,62.99
2018-10-07T16:31:35.237Z,63.01
2018-10-07T16:34:04.705Z,63.36
2018-10-07T16:36:33.612Z,63.50
2018-10-07T16:39:02.623Z,64.11
2018-10-07T16:41:31.544Z,64.73
2018-10-07T16:44:00.461Z,64.50
2018-10-07T16:46:30.198Z,64.63
2018-10-07T16:48:59.237Z,65.19
2018-10-07T16:51:28.441Z,65.74
2018-10-07T16:53:57.350Z,65.89
2018-10-07T16:56:26.591Z,66.05
2018-10-07T16:58:55.382Z,65.71
2018-10-07T17:01:24.155Z,65.86
2018-10-07T17:03:53.198Z,66.00
2018-10-07T17:06:22.148Z,66.61
2018-10-07T17:08:50.926Z,66.85
2018-10-07T17:11:19.995Z,66.89
2018-10-07T17:13:48.814Z,67.21
2018-10-07T17:16:17.893Z,67.21
2018-10-07T17:18:47.694Z,67.49
2018-10-07T17:21:16.542Z,67.24
2018-10-07T17:23:46.827Z,67.41
2018-10-07T17:26:16.133Z,67.69
2018-10-07T17:28:45.534Z,67.53
2018-10-07T17:31:15.218Z,67.10
2018-10-07T17:36:22.404Z,67.47
2018-10-07T17:38:51.401Z,67.08
2018-10-07T17:41:20.267Z,67.52
2018-10-07T17:43:49.138Z,67.75
2018-10-07T17:46:18.551Z,67.97
2018-10-07T17:48:47.808Z,68.33
2018-10-07T17:51:16.568Z,68.50
2018-10-07T17:53:45.849Z,68.82
2018-10-07T17:56:14.778Z,69.25
2018-10-07T17:58:43.869Z,69.14
2018-10-07T18:01:12.812Z,69.10
2018-10-07T18:03:41.795Z,69.32
2018-10-07T18:06:11.049Z,69.66
2018-10-07T18:08:40.024Z,69.92
2018-10-07T18:11:08.873Z,70.09
2018-10-07T18:13:37.752Z,70.08
2018-10-07T18:16:07.560Z,70.40
2018-10-07T18:18:36.745Z,70.44
2018-10-07T18:21:05.936Z,70.58
2018-10-07T18:23:34.836Z,70.86
2018-10-07T18:26:03.870Z,71.19
2018-10-07T18:28:33.049Z,71.22
2018-10-07T18:31:02.039Z,71.38
2018-10-07T18:33:30.938Z,71.57
2018-10-07T18:36:05.771Z,71.86
2018-10-07T18:38:34.930Z,72.37
2018-10-07T18:41:04.498Z,72.76
2018-10-07T18:43:33.307Z,72.86
2018-10-07T18:46:02.415Z,72.95
2018-10-07T18:48:31.548Z,73.09
2018-10-07T18:51:00.814Z,73.24
2018-10-07T18:53:29.672Z,73.86
2018-10-07T18:55:58.838Z,73.80
2018-10-07T18:58:27.724Z,74.10
2018-10-07T19:00:56.918Z,74.26
2018-10-07T19:03:25.941Z,74.57
2018-10-07T19:05:55.486Z,75.11
2018-10-07T19:08:25.275Z,75.67
2018-10-07T19:10:54.079Z,76.11
2018-10-07T19:13:23.130Z,76.05
2018-10-07T19:15:52.093Z,76.30
2018-10-07T19:18:21.283Z,76.33
2018-10-07T19:20:50.321Z,76.39
2018-10-07T19:23:19.092Z,76.81
2018-10-07T19:25:47.977Z,77.22
2018-10-07T19:28:16.836Z,77.58
2018-10-07T19:30:46.029Z,77.79
2018-10-07T19:33:14.957Z,77.88
2018-10-07T19:35:44.332Z,78.39
2018-10-07T19:38:13.110Z,78.34
2018-10-07T19:40:42.368Z,78.80
2018-10-07T19:43:11.642Z,79.10
2018-10-07T19:45:40.429Z,79.19
2018-10-07T19:48:09.271Z,79.47
2018-10-07T19:50:38.532Z,79.79
2018-10-07T19:53:07.823Z,79.87
2018-10-07T19:55:36.740Z,79.87
2018-10-07T19:58:05.888Z,80.01
2018-10-07T20:00:35.604Z,79.93
2018-10-07T20:03:05.590Z,80.50
2018-10-07T20:05:34.377Z,80.77
2018-10-07T20:08:03.132Z,81.16
2018-10-07T20:10:32.254Z,81.73
2018-10-07T20:13:01.639Z,82.15
2018-10-07T20:15:32.470Z,82.30
2018-10-07T20:18:02.029Z,82.47
2018-10-07T20:20:31.925Z,82.68
2018-10-07T20:23:01.279Z,82.54
2018-10-07T20:25:37.588Z,82.77
2018-10-07T20:28:07.671Z,82.89
2018-10-07T20:30:37.776Z,83.12
2018-10-07T20:33:07.772Z,83.71
2018-10-07T20:35:37.603Z,83.40
2018-10-07T20:38:07.274Z,83.66
2018-10-07T20:40:37.759Z,84.02
2018-10-07T20:43:07.469Z,84.16
2018-10-07T20:45:37.449Z,84.12
2018-10-07T20:48:07.517Z,84.26
2018-10-07T20:50:37.197Z,84.23
2018-10-07T20:53:07.548Z,84.70
2018-10-07T20:55:37.384Z,84.72
2018-10-07T20:58:07.463Z,84.92
2018-10-07T21:00:37.387Z,85.23
2018-10-07T21:03:07.012Z,84.94
2018-10-07T21:05:36.545Z,85.46
2018-10-07T21:08:06.192Z,85.95
2018-10-07T21:10:35.871Z,86.02
2018-10-07T21:13:05.716Z,86.06
2018-10-07T21:15:35.481Z,86.54
2018-10-07T21:18:05.513Z,86.94
2018-10-07T21:20:35.771Z,87.21
2018-10-07T21:23:05.788Z,87.01
2018-10-07T21:25:35.517Z,87.47
2018-10-07T21:28:05.032Z,87.55
2018-10-07T21:30:34.665Z,87.52
2018-10-07T21:33:04.743Z,87.74
2018-10-07T21:35:34.543Z,87.82
2018-10-07T21:38:04.164Z,87.89
2018-10-07T21:40:33.281Z,88.20
2018-10-07T21:43:02.100Z,88.14
2018-10-07T21:45:30.993Z,88.44
2018-10-07T21:47:59.791Z,88.77
2018-10-07T21:50:28.561Z,88.31
2018-10-07T21:52:57.711Z,88.57
2018-10-07T21:55:26.431Z,88.62
2018-10-07T21:57:55.510Z,88.76
2018-10-07T22:00:24.993Z,89.00
2018-10-07T22:02:54.054Z,89.15
2018-10-07T22:05:23.163Z,89.11
2018-10-07T22:07:51.978Z,89.54
2018-10-07T22:10:20.793Z,89.89
2018-10-07T22:12:49.930Z,89.90
2018-10-07T22:15:18.787Z,90.27
2018-10-07T22:17:47.606Z,90.47
2018-10-07T22:20:16.415Z,90.79
2018-10-07T22:22:45.288Z,90.89
2018-10-07T22:25:14.040Z,91.05
2018-10-07T22:27:42.834Z,91.42
2018-10-07T22:30:13.276Z,91.55
2018-10-07T22:32:42.430Z,91.56
2018-10-07T22:35:11.527Z,91.68
2018-10-07T22:37:40.792Z,92.08
2018-10-07T22:40:09.575Z,92.09
2018-10-07T22:42:38.350Z,92.12
2018-10-07T22:45:07.649Z,92.38
2018-10-07T22:47:36.686Z,92.43
2018-10-07T22:50:05.519Z,92.57
2018-10-07T22:52:34.503Z,92.34
2018-10-07T22:55:03.318Z,92.46
2018-10-07T22:57:32.088Z,92.67
2018-10-07T23:00:01.789Z,92.77
2018-10-07T23:02:30.751Z,92.81
2018-10-07T23:05:00.155Z,92.93
2018-10-07T23:07:29.238Z,93.04
2018-10-07T23:09:58.044Z,93.09
2018-10-07T23:12:27.207Z,93.11
2018-10-07T23:14:56.404Z,93.23
2018-10-07T23:17:25.558Z,93.44
2018-10-07T23:19:54.303Z,93.50
2018-10-07T23:22:23.070Z,93.50
2018-10-07T23:24:52.131Z,93.85
2018-10-07T23:27:20.909Z,93.70
2018-10-07T23:29:49.639Z,93.96
2018-10-07T23:32:18.440Z,94.24
2018-10-07T23:34:47.451Z,94.16
2018-10-07T23:37:16.639Z,94.02
2018-10-07T23:39:45.469Z,94.07
2018-10-07T23:42:14.286Z,94.25
2018-10-07T23:44:43.529Z,94.27
2018-10-07T23:47:12.542Z,94.31
2018-10-07T23:49:41.411Z,94.58
2018-10-07T23:52:10.276Z,94.69
2018-10-07T23:54:39.334Z,94.56
2018-10-07T23:57:08.240Z,94.84
2018-10-07T23:59:37.310Z,94.65
